Date,TemperatureHighF,TemperatureAvgF,TemperatureLowF,DewpointHighF,DewpointAvgF,DewpointLowF,HumidityHigh,HumidityAvg,HumidityLow,PressureMaxIn,PressureMinIn,WindSpeedMaxMPH,WindSpeedAvgMPH,GustSpeedMaxMPH,PrecipitationSumIn
2013-1-1,32.0,26.5,18.1,21.6,15.6,7.7,73,63,50,30.13,30.03,14,3,14,0.00
2013-1-2,27.1,18.2,14.0,12.4,7.0,1.5,69,61,51,30.18,30.10,11,4,11,0.01
2013-1-3,30.7,23.3,12.4,23.3,13.5,0.3,77,66,54,30.20,30.08,15,5,15,0.00
2013-1-4,30.7,23.8,15.8,18.9,13.9,6.2,76,66,56,30.21,30.11,22,8,22,0.00
2013-1-5,34.9,28.2,18.5,29.8,20.9,11.7,88,74,57,30.23,30.00,17,4,17,0.00
2013-1-6,35.6,33.6,28.9,30.0,27.1,21.9,82,77,67,30.27,29.90,19,6,19,0.00
2013-1-7,36.7,28.9,19.8,26.0,20.8,15.9,85,72,57,30.35,30.12,21,6,21,0.00
2013-1-8,40.8,31.9,25.0,28.3,23.0,18.2,78,70,60,30.21,30.08,12,4,12,0.00
2013-1-9,49.6,39.4,29.5,33.7,27.4,20.9,76,63,35,30.43,30.03,17,6,17,0.00
2013-1-10,41.7,33.4,24.3,36.1,25.9,19.0,95,74,58,30.49,30.02,17,3,17,0.38
2013-1-11,56.1,48.9,37.4,52.1,45.9,36.1,99,89,78,30.03,29.73,21,6,21,0.39
2013-1-12,59.9,51.3,39.6,50.0,45.2,37.1,94,80,61,30.57,29.78,13,4,13,0.18
2013-1-13,39.6,33.6,23.4,38.0,30.7,16.5,95,89,74,30.13,29.78,14,3,14,0.26
2013-1-14,25.0,21.2,17.2,17.0,13.2,9.6,76,71,61,30.41,30.13,0,0,0,0.00
2013-1-15,31.8,22.0,13.5,19.5,13.5,7.9,82,70,56,30.38,30.11,8,1,8,0.01
2013-1-16,36.9,28.2,18.3,25.2,17.8,12.7,85,67,41,30.11,29.84,21,5,21,0.02
2013-1-17,35.8,30.7,23.0,26.4,18.6,9.5,77,61,46,30.32,29.99,21,6,21,0.01
2013-1-18,38.7,29.1,21.9,25.6,16.0,10.1,67,58,51,30.38,29.97,24,7,24,0.00
2013-1-19,48.9,43.5,36.9,35.6,31.6,25.6,72,63,54,29.97,29.71,26,10,26,0.00
2013-1-20,42.4,22.2,17.8,30.0,8.3,3.1,64,55,34,30.21,29.72,33,10,33,0.00
2013-1-21,19.8,14.1,9.0,7.4,1.5,-5.5,74,57,35,30.15,30.03,22,9,22,0.01
2013-1-22,12.6,8.0,3.0,1.3,-4.2,-11.2,70,58,38,30.28,30.14,15,6,15,0.00
2013-1-23,18.5,14.0,8.1,12.8,1.3,-5.8,78,57,43,30.26,30.04,14,6,14,0.00
2013-1-24,21.0,13.4,3.2,10.2,-1.0,-6.4,76,54,31,30.56,30.13,10,2,10,0.00
2013-1-25,24.8,21.1,16.7,18.2,9.9,-1.8,76,62,43,30.39,29.96,12,4,12,0.00
2013-1-26,29.7,25.4,21.2,19.0,15.9,13.6,79,67,57,30.39,30.03,11,3,11,0.00
2013-1-27,33.8,27.4,19.4,31.0,18.9,13.9,90,71,59,30.39,30.00,18,4,18,0.01
2013-1-28,49.6,42.1,33.8,49.4,41.5,30.9,99,97,89,30.01,29.85,14,4,14,0.15
2013-1-29,58.1,53.7,39.2,56.8,52.8,38.8,99,97,90,29.93,29.40,19,7,19,1.00
2013-1-30,53.6,45.3,28.0,52.8,43.5,23.4,99,93,76,29.46,29.16,28,6,28,0.74
2013-1-31,27.9,18.8,12.7,23.5,11.5,-7.9,84,73,29,29.98,29.46,24,10,24,0.00
2013-2-1,14.4,10.2,4.6,7.1,-0.2,-5.0,78,63,47,30.29,29.98,21,7,21,0.00
2013-2-2,26.4,19.1,11.3,19.6,11.3,2.2,85,71,59,30.18,29.92,11,4,11,0.00
2013-2-3,22.6,18.2,14.2,16.6,9.3,4.3,80,68,59,30.01,29.90,14,4,14,0.00
2013-2-4,26.4,22.5,18.5,19.3,16.6,8.1,85,78,63,30.01,29.82,8,2,8,0.00
2013-2-5,31.8,24.3,12.9,26.8,18.9,7.7,89,80,64,29.98,29.78,16,4,16,0.01
2013-2-6,36.9,30.0,22.6,24.4,18.9,15.9,81,64,44,30.23,29.98,11,3,11,0.13
2013-2-7,43.9,33.6,25.9,31.6,24.7,18.5,92,70,54,30.17,29.78,10,3,10,0.15
2013-2-8,34.2,31.1,25.0,31.6,24.1,18.0,93,76,58,30.32,29.79,14,3,14,0.00
2013-2-9,37.6,27.2,16.0,22.9,17.7,10.7,84,68,49,30.38,30.15,14,3,14,0.00
2013-2-10,47.3,37.3,27.0,45.9,30.2,18.0,98,76,63,30.15,29.59,14,5,14,0.06
2013-2-11,49.3,37.2,31.1,46.0,26.6,20.0,94,65,59,29.95,29.56,30,13,30,0.02
2013-2-12,36.0,30.4,28.2,21.8,20.2,18.2,71,66,52,30.07,29.92,17,6,17,0.00
2013-2-13,45.9,31.9,21.0,28.8,22.1,16.0,83,68,48,29.92,29.71,14,2,14,0.00
2013-2-14,41.2,36.5,31.5,34.3,28.1,18.9,83,72,52,29.92,29.68,22,7,22,0.00
2013-2-15,34.2,28.4,23.4,23.7,17.1,11.0,77,63,46,30.13,29.91,13,4,13,0.00
2013-2-16,24.8,20.4,14.7,16.8,9.6,1.9,79,63,46,30.09,30.03,21,5,21,0.00
2013-2-17,30.6,21.4,13.6,13.1,8.5,3.6,75,59,36,30.18,30.08,11,2,11,0.01
2013-2-18,53.4,38.7,23.9,43.7,26.1,9.3,89,61,47,30.10,29.48,24,8,24,0.06
2013-2-19,45.3,22.9,15.4,42.5,15.1,5.2,91,72,56,30.03,29.44,24,7,24,0.05
2013-2-20,24.4,20.1,15.6,15.8,12.0,7.5,76,70,61,30.28,30.03,16,7,16,0.00
2013-2-21,27.5,23.9,20.5,16.3,14.3,12.0,74,66,59,30.33,30.06,18,5,18,0.00
2013-2-22,34.3,28.2,21.4,32.0,23.3,12.5,91,82,66,30.07,29.82,16,6,18,0.00
2013-2-23,32.0,28.1,26.1,22.3,17.8,14.7,75,65,54,29.94,29.88,17,7,17,0.02
2013-2-24,41.0,30.2,23.7,23.2,19.4,15.8,81,65,47,30.13,29.91,11,4,11,0.08
2013-2-25,43.0,31.8,19.4,26.0,21.8,15.4,86,68,46,30.18,30.00,11,2,11,0.00
2013-2-26,34.7,32.8,30.9,31.6,26.3,20.9,94,77,57,30.00,29.45,25,7,25,0.25
2013-2-27,36.5,33.6,32.7,33.2,31.6,30.9,95,92,85,29.59,29.45,11,2,11,0.37
2013-2-28,39.4,34.7,31.8,32.1,29.9,26.7,94,83,70,29.95,29.58,14,5,14,0.09
2013-3-1,35.4,30.6,25.5,27.0,20.7,14.5,81,66,53,30.11,29.95,11,5,11,0.00
2013-3-2,33.6,27.9,24.8,17.5,14.8,10.9,64,58,48,30.10,30.04,13,4,13,0.00
2013-3-3,34.3,26.8,20.8,17.5,12.4,8.1,66,55,38,30.08,30.01,14,4,14,0.00
2013-3-4,36.5,27.4,16.9,19.5,14.2,8.9,80,58,37,30.11,30.01,9,2,9,0.00
2013-3-5,33.8,30.4,26.8,28.1,23.1,19.2,95,75,59,30.04,29.75,15,6,15,0.00
2013-3-6,36.1,31.2,26.2,31.4,26.7,23.5,92,84,69,30.22,29.84,12,4,12,0.06
2013-3-7,39.2,33.5,24.1,29.8,25.0,18.3,88,72,53,30.38,30.20,13,3,13,0.00
2013-3-8,43.7,30.5,17.1,24.2,18.8,11.7,85,64,42,30.46,30.35,8,2,8,0.00
2013-3-9,45.0,36.1,25.3,32.8,25.5,16.5,76,65,51,30.35,29.93,14,4,14,0.00
2013-3-10,60.1,49.8,38.1,43.2,38.1,31.6,92,65,52,29.93,29.70,16,4,16,0.07
2013-3-11,54.9,45.6,34.9,48.8,41.1,28.3,97,85,54,29.73,29.52,20,7,20,0.05
2013-3-12,37.2,33.2,30.2,29.8,26.3,19.9,91,76,52,29.93,29.73,17,8,17,0.00
2013-3-13,32.7,27.4,24.4,25.7,17.6,8.8,87,68,45,30.25,29.92,21,6,21,0.01
2013-3-14,43.2,31.8,20.3,24.9,16.4,8.7,69,54,34,30.27,30.09,11,4,11,0.00
2013-3-15,48.4,38.5,31.1,39.6,32.2,25.6,96,79,57,30.09,29.78,11,4,11,0.06
2013-3-16,39.0,34.3,28.6,38.0,29.7,19.4,97,84,65,30.06,29.65,14,5,14,0.00
2013-3-17,38.1,31.4,28.0,21.5,18.2,15.0,70,58,42,30.19,30.05,19,5,19,0.00
2013-3-18,35.1,31.4,27.9,33.0,26.1,15.8,92,81,60,30.05,29.57,22,6,22,0.06
2013-3-19,35.1,27.5,20.3,19.7,11.1,7.3,67,51,32,30.00,29.72,30,12,30,0.01
2013-3-20,29.8,23.4,18.3,14.3,9.1,2.3,75,55,40,30.00,29.95,19,8,19,0.00
2013-3-21,31.5,23.5,16.3,18.9,13.3,9.2,82,65,46,29.99,29.91,21,5,21,0.02
2013-3-22,41.4,30.3,20.5,19.4,14.2,4.2,75,53,25,30.04,29.96,17,4,17,0.00
2013-3-23,39.7,30.3,22.8,22.9,18.6,15.4,80,62,46,30.11,29.98,14,3,14,0.00
2013-3-24,38.1,32.4,27.5,23.4,21.0,18.2,75,63,48,29.99,29.59,23,8,23,0.00
2013-3-25,36.9,33.2,28.6,28.0,24.4,18.9,88,70,55,29.95,29.58,19,6,19,0.02
2013-3-26,38.1,35.0,33.6,27.8,25.4,21.9,77,68,56,30.17,29.70,15,6,15,0.02
2013-3-27,45.3,37.0,29.3,32.1,23.5,15.2,84,61,33,30.26,30.17,20,5,20,0.00
2013-3-28,52.0,38.1,25.0,27.4,19.0,14.1,73,48,27,30.29,30.24,13,3,13,0.00
2013-3-29,53.8,39.0,24.8,26.6,18.3,13.3,80,48,22,30.29,30.20,16,2,16,0.00
2013-3-30,57.2,42.1,25.2,32.2,24.5,16.5,76,52,31,30.22,29.90,14,3,14,0.00
2013-3-31,61.5,49.2,40.1,45.1,35.1,25.6,97,61,27,29.90,29.67,21,6,21,0.01
2013-4-1,39.9,34.3,27.7,29.2,14.6,5.7,70,46,27,30.11,29.79,22,6,22,0.00
2013-4-2,42.6,33.1,23.0,17.7,11.1,3.6,65,42,24,30.25,30.11,21,5,21,0.00
2013-4-3,48.7,38.2,23.4,17.4,11.7,5.7,63,36,22,30.40,30.25,11,3,11,0.00
2013-4-4,58.5,41.6,25.2,23.8,17.0,11.1,58,39,22,31.00,29.95,14,3,14,0.00
2013-4-5,53.2,43.3,33.8,30.9,23.3,15.2,70,47,23,30.18,29.93,14,4,14,0.00
2013-4-6,64.6,49.5,33.6,39.9,28.0,21.5,64,45,28,30.15,29.71,24,8,24,0.00
2013-4-7,62.1,53.5,43.9,49.5,41.0,34.1,83,63,45,29.97,29.64,27,7,27,0.02
2013-4-8,71.1,51.9,42.8,57.4,43.1,33.3,95,73,52,29.98,29.67,31,6,31,0.11
2013-4-9,75.9,58.1,42.8,59.8,49.2,39.4,91,74,51,30.00,29.81,20,4,20,0.00
2013-4-10,56.1,47.9,41.9,50.7,45.5,40.9,99,92,82,29.93,29.80,17,5,17,0.19
2013-4-11,43.7,42.3,39.7,42.8,41.7,39.5,99,98,94,29.95,29.57,20,6,20,1.55
2013-4-12,44.2,40.4,38.3,39.8,36.7,31.6,99,87,72,29.81,29.56,18,7,18,0.18
2013-4-13,44.1,39.1,34.9,33.9,30.1,26.6,90,71,53,29.97,29.81,17,6,17,0.07
2013-4-14,61.0,47.5,37.6,46.3,36.7,28.6,78,67,53,30.02,29.80,17,5,17,0.00
2013-4-15,64.0,57.5,49.3,57.1,50.1,43.1,94,77,67,29.92,29.79,22,5,22,0.05
2013-4-16,55.2,48.1,43.0,47.2,39.5,29.5,98,75,42,30.22,29.92,11,4,11,0.28
2013-4-17,54.7,48.7,44.2,46.0,39.6,33.5,97,72,57,30.24,29.89,21,6,21,0.64
2013-4-18,71.8,59.4,46.9,65.5,57.0,45.8,98,92,77,29.89,29.51,27,7,27,0.66
2013-4-19,59.5,41.0,34.9,59.0,34.8,27.2,98,79,61,29.83,29.48,31,11,31,0.47
2013-4-20,43.2,36.8,30.7,30.3,20.5,13.4,83,53,31,30.41,29.83,18,6,18,0.00
2013-4-21,52.9,39.6,24.3,29.9,23.1,16.7,75,53,36,30.52,30.37,14,4,14,0.00
2013-4-22,66.2,54.2,33.3,40.6,30.5,25.4,76,44,25,30.37,30.10,12,4,12,0.00
2013-4-23,67.8,55.7,41.4,57.2,48.4,38.9,99,78,55,30.10,29.83,21,6,21,0.37
2013-4-24,47.1,40.1,36.0,41.1,31.6,21.8,99,74,40,30.13,29.82,21,6,21,0.17
2013-4-25,51.4,45.2,36.1,38.5,32.9,26.2,88,64,38,30.33,30.07,25,6,25,0.01
2013-4-26,64.4,52.6,30.9,42.0,36.8,28.5,96,58,38,30.39,30.28,16,5,16,0.00
2013-4-27,71.1,61.4,38.7,48.0,40.2,30.9,99,50,25,30.31,30.03,14,4,14,0.00
2013-4-28,60.1,56.0,50.2,56.9,54.2,47.7,99,94,64,30.03,29.82,8,1,8,0.14
2013-4-29,73.2,61.4,49.1,59.1,54.0,48.8,99,79,51,29.94,29.85,14,4,14,0.01
2013-4-30,81.3,70.4,56.7,63.3,59.1,53.4,89,69,52,29.99,29.88,19,7,19,0.00
2013-5-1,85.1,75.3,56.7,61.2,57.1,54.3,94,56,38,30.16,30.00,14,4,14,0.00
2013-5-2,82.4,72.4,54.3,61.2,57.0,49.3,92,61,40,30.17,30.05,14,4,14,0.00
2013-5-3,79.0,68.7,48.6,62.7,54.5,45.5,93,63,44,30.08,29.94,17,4,17,0.00
2013-5-4,73.2,67.4,59.2,52.4,46.0,39.4,65,47,31,30.03,29.96,19,5,19,0.00
2013-5-5,74.3,68.0,52.7,51.6,47.2,42.2,75,48,36,30.02,29.96,19,4,19,0.00
2013-5-6,78.8,67.9,56.7,56.1,47.0,37.4,84,49,26,30.01,29.93,9,3,9,0.00
2013-5-7,78.1,68.0,52.0,57.4,53.8,50.8,98,63,43,30.03,29.95,11,2,11,0.00
2013-5-8,79.7,69.9,54.5,63.5,54.6,47.0,98,62,38,30.02,29.94,9,2,9,0.05
2013-5-9,81.3,69.2,50.4,59.7,53.8,43.6,99,62,28,29.98,29.88,17,3,17,0.00
2013-5-10,65.3,57.4,47.3,62.4,54.6,47.0,99,91,71,29.91,29.76,17,6,17,0.11
2013-5-11,56.5,47.5,40.8,52.2,43.5,35.0,99,87,58,29.97,29.81,27,5,27,0.04
2013-5-12,51.4,44.1,35.4,37.8,31.6,27.8,96,62,42,30.10,29.96,19,6,19,0.00
2013-5-13,60.6,50.4,33.1,37.4,27.9,21.1,98,48,23,30.16,30.06,16,3,16,0.00
2013-5-14,86.9,71.3,50.0,60.2,48.2,27.5,65,45,33,30.06,29.69,21,6,21,0.00
2013-5-15,82.4,76.9,68.2,63.5,53.9,47.2,80,47,31,29.82,29.64,18,6,18,0.00
2013-5-16,85.5,72.7,52.5,55.5,48.9,40.1,98,50,24,29.97,29.82,12,2,12,0.00
2013-5-17,82.6,70.8,56.7,56.1,50.1,43.5,76,49,36,30.06,29.97,15,4,15,0.00
2013-5-18,83.5,73.5,59.4,63.1,57.4,41.6,82,58,44,30.09,29.97,10,3,10,0.00
2013-5-19,88.5,78.4,58.6,66.0,61.5,52.8,81,57,43,30.00,29.82,11,3,11,0.00
2013-5-20,90.0,81.9,71.8,72.7,68.4,63.0,93,66,41,29.87,29.77,21,7,21,0.00
2013-5-21,84.9,75.5,63.9,69.5,66.1,63.0,99,74,54,29.81,29.70,18,6,18,0.45
2013-5-22,78.1,69.9,65.5,68.4,65.9,59.1,99,88,60,29.75,29.66,23,5,23,0.13
2013-5-23,65.8,53.6,46.0,61.4,52.5,45.0,99,96,83,30.17,29.73,13,5,13,0.01
2013-5-24,60.8,51.9,38.3,43.8,39.5,36.4,99,65,42,30.35,30.18,14,4,14,0.00
2013-5-25,69.1,59.5,39.2,49.1,43.8,38.2,99,59,35,30.36,30.24,10,2,10,0.00
2013-5-26,73.8,65.8,45.5,47.0,43.0,39.6,97,46,32,30.30,30.16,10,3,10,0.00
2013-5-27,62.8,55.4,51.8,56.6,53.2,38.0,99,93,42,30.17,29.91,13,4,13,0.46
2013-5-28,81.0,72.4,55.9,72.2,67.9,55.7,99,86,70,29.91,29.79,22,6,22,0.28
2013-5-29,84.9,75.9,62.1,74.8,67.8,61.5,99,77,56,29.99,29.83,17,5,17,0.11
2013-5-30,88.5,79.9,67.5,71.8,68.9,65.0,94,70,51,30.01,29.89,22,6,22,0.00
2013-5-31,78.6,72.3,65.8,71.1,68.4,62.9,99,88,74,29.94,29.76,15,6,15,0.25
2013-6-1,74.8,71.0,64.2,67.7,65.9,63.4,99,84,73,29.85,29.70,17,6,17,0.26
2013-6-2,66.6,58.3,47.7,64.8,51.4,42.7,98,78,65,30.00,29.70,15,6,15,0.00
2013-6-3,70.0,61.1,42.3,50.6,45.0,41.0,99,58,38,30.09,30.01,11,3,11,0.00
2013-6-4,76.6,65.8,46.2,53.5,49.6,45.4,99,59,37,30.17,30.08,11,2,11,0.00
2013-6-5,78.3,69.0,56.1,54.5,50.9,45.3,78,54,41,30.12,29.92,11,3,11,0.00
2013-6-6,74.1,66.2,59.0,58.0,53.6,45.4,82,65,47,29.95,29.83,11,4,11,0.00
2013-6-7,72.9,64.4,54.0,57.4,54.0,50.9,95,70,52,29.91,29.86,13,4,13,0.00
2013-6-8,77.9,69.3,51.4,57.7,55.1,51.2,99,63,44,30.01,29.90,9,2,9,0.00
2013-6-9,82.6,73.4,59.4,66.1,60.9,55.8,95,67,46,30.03,29.86,11,2,11,0.00
2013-6-10,75.6,69.6,64.6,70.7,67.0,64.3,99,92,77,29.87,29.75,11,3,11,0.66
2013-6-11,86.0,75.7,61.3,69.2,65.3,60.8,99,72,48,29.93,29.82,13,4,13,0.00
2013-6-12,88.3,76.6,67.5,76.6,71.9,66.9,99,86,64,29.90,29.63,8,2,8,0.45
2013-6-13,77.4,69.9,58.5,66.1,58.9,54.3,99,70,47,29.98,29.55,20,6,20,0.17
2013-6-14,81.0,69.6,55.0,62.1,58.6,53.8,99,70,41,30.09,29.97,11,3,11,0.00
2013-6-15,77.0,69.9,57.9,68.3,64.4,57.6,99,84,63,30.07,29.91,12,2,12,0.02
2013-6-16,84.0,78.4,66.4,69.5,65.8,58.1,99,67,46,29.91,29.86,13,4,13,0.07
2013-6-17,88.7,80.2,65.3,69.4,61.9,54.2,99,58,32,29.94,29.86,13,3,13,0.00
2013-6-18,76.3,68.6,62.2,64.8,60.1,51.5,98,76,56,30.04,29.87,12,4,12,0.01
2013-6-19,79.5,67.0,54.1,53.5,49.7,46.5,82,57,32,30.15,30.03,8,3,8,0.00
2013-6-20,85.5,76.3,56.3,65.5,59.2,51.8,95,58,37,30.17,30.11,10,2,10,0.00
2013-6-21,88.3,78.7,64.0,69.3,65.2,61.1,98,66,41,30.17,29.99,15,4,15,0.00
2013-6-22,86.7,78.7,69.1,76.4,72.3,66.9,93,81,66,30.09,29.98,9,4,9,0.00
2013-6-23,89.8,83.8,65.8,72.9,69.1,65.6,99,63,48,30.07,29.97,15,6,15,0.00
2013-6-24,87.4,79.8,67.5,72.9,70.2,65.2,99,74,49,30.08,29.92,24,5,24,0.02
2013-6-25,90.9,78.7,67.8,78.0,72.9,67.2,99,84,58,29.99,29.79,19,4,19,0.14
2013-6-26,84.6,73.0,66.2,75.1,70.2,65.9,99,92,62,29.91,29.73,22,3,22,1.38
2013-6-27,86.5,76.8,67.1,74.7,70.9,66.8,99,84,57,29.77,29.68,13,3,13,0.01
2013-6-28,81.1,74.1,65.5,71.3,65.1,60.6,99,75,53,29.69,29.59,17,4,17,0.09
2013-6-29,76.5,67.3,62.8,69.3,64.9,61.9,99,93,71,29.73,29.57,11,2,11,0.69
2013-6-30,81.0,70.2,62.2,65.7,62.4,57.2,98,78,48,29.94,29.73,18,4,18,0.06
2013-7-1,76.5,68.6,61.0,62.6,54.4,44.2,76,61,43,30.03,29.94,20,6,20,0.00
2013-7-2,67.5,63.0,59.0,67.2,61.7,54.8,99,95,69,30.04,30.00,11,3,11,0.02
2013-7-3,80.4,74.9,64.0,69.2,66.3,63.2,99,75,59,30.08,29.99,17,4,17,0.00
2013-7-4,80.1,73.3,61.2,67.7,64.0,60.6,99,74,54,30.13,30.06,10,2,10,0.00
2013-7-5,84.6,77.5,64.2,70.7,68.4,63.4,99,74,57,30.11,30.03,8,2,8,0.00
2013-7-6,80.6,75.0,68.2,73.6,70.1,67.6,99,85,70,30.09,29.99,9,2,9,0.00
2013-7-7,86.0,78.2,68.2,73.8,71.9,67.9,99,82,64,30.05,29.97,11,4,11,0.04
2013-7-8,78.8,75.1,71.1,74.8,72.5,70.5,99,92,82,30.02,29.96,11,3,11,0.09
2013-7-9,87.3,78.6,72.3,79.4,75.9,71.5,99,92,73,30.00,29.89,21,2,21,0.51
2013-7-10,83.7,78.0,65.1,79.5,70.1,55.8,99,78,51,29.99,29.84,15,4,15,0.00
2013-7-11,79.9,68.9,57.9,64.9,57.8,51.9,99,72,40,30.07,29.99,14,2,14,0.00
2013-7-12,82.0,73.0,56.7,65.7,60.0,55.1,99,67,41,30.14,30.06,12,2,12,0.00
2013-7-13,85.5,77.0,60.1,68.9,66.1,59.8,99,70,52,30.16,30.11,10,3,10,0.00
2013-7-14,90.3,82.9,66.9,74.4,71.4,66.6,99,70,51,30.21,30.16,10,3,10,0.00
2013-7-15,92.7,82.6,72.5,80.7,77.1,71.6,99,84,58,30.27,30.21,7,1,7,0.02
2013-7-16,93.2,83.7,73.6,77.0,73.9,70.3,99,75,50,30.32,30.25,10,2,10,0.00
2013-7-17,92.7,85.5,73.2,77.8,75.3,72.4,98,73,56,30.32,30.18,10,3,10,0.00
2013-7-18,93.6,85.6,73.6,77.9,75.2,72.1,99,73,55,30.19,29.99,14,3,14,0.00
2013-7-19,95.5,87.8,76.6,77.3,74.9,72.5,97,67,50,29.99,29.78,21,7,21,0.00
2013-7-20,88.7,82.6,75.4,76.7,67.3,59.4,91,62,44,29.92,29.78,9,4,9,0.01
2013-7-21,85.6,79.8,67.5,71.7,66.9,64.1,92,66,50,29.98,29.87,8,2,8,0.00
2013-7-22,85.3,75.9,65.5,71.2,68.9,65.2,99,80,58,29.93,29.77,11,3,11,0.69
2013-7-23,81.7,73.8,61.2,70.9,65.4,56.0,96,76,57,29.92,29.71,18,6,18,0.00
2013-7-24,75.4,66.0,53.2,58.3,53.4,49.8,96,66,47,30.03,29.94,11,3,11,0.00
2013-7-25,79.3,70.0,54.9,60.3,57.1,54.0,99,66,45,30.10,30.03,9,2,9,0.00
2013-7-26,78.3,69.9,59.4,66.8,62.2,57.9,99,78,54,30.06,29.89,15,4,15,0.08
2013-7-27,72.9,66.1,59.7,67.2,59.2,50.7,99,79,67,29.90,29.82,21,5,21,0.00
2013-7-28,68.7,59.5,53.1,54.3,51.7,50.0,92,76,57,29.99,29.85,14,5,14,0.00
2013-7-29,74.1,66.4,55.6,60.2,57.6,52.3,96,74,58,30.18,29.99,11,4,11,0.00
2013-7-30,79.5,70.4,53.8,64.7,60.2,53.0,99,72,50,30.20,30.09,11,2,11,0.00
2013-7-31,69.6,67.6,64.8,69.4,67.2,64.5,99,98,88,30.09,29.93,8,2,8,0.14
2013-8-1,80.4,72.6,61.2,68.9,59.9,53.0,99,68,42,29.96,29.93,15,4,15,0.00
2013-8-2,80.1,68.6,55.9,72.7,65.5,55.7,99,90,73,29.97,29.83,16,4,16,0.33
2013-8-3,79.7,73.1,62.8,69.1,58.6,50.0,99,63,39,30.07,29.93,14,4,14,0.00
2013-8-4,77.4,71.0,56.3,59.1,55.9,52.3,99,61,43,30.18,30.08,11,3,11,0.00
2013-8-5,74.5,67.5,52.7,64.3,60.2,52.2,99,78,60,30.13,29.93,10,2,10,0.00
2013-8-6,81.3,72.2,62.6,72.3,68.5,61.8,99,89,72,29.95,29.87,11,3,11,0.53
2013-8-7,79.9,72.8,68.5,75.0,71.0,66.5,99,94,83,29.92,29.83,17,2,17,0.38
2013-8-8,78.8,72.5,64.0,69.1,65.1,63.0,99,79,62,30.00,29.92,14,4,14,0.01
2013-8-9,82.4,73.7,62.4,65.6,62.3,58.9,97,70,46,30.02,29.96,7,2,9,0.00
2013-8-10,80.6,74.1,65.1,68.2,64.1,59.9,98,72,52,30.11,30.01,9,2,9,0.00
2013-8-11,81.3,74.8,58.6,64.6,60.3,55.8,99,63,47,30.12,30.04,10,2,10,0.00
2013-8-12,83.7,76.0,66.6,71.0,67.4,64.2,99,76,59,30.05,29.85,12,4,12,0.00
2013-8-13,70.3,64.2,55.9,66.5,53.6,49.4,99,70,50,30.10,29.89,16,4,16,0.00
2013-8-14,72.7,61.1,50.2,52.5,49.9,47.9,94,70,43,30.19,30.11,8,2,8,0.00
2013-8-15,76.1,64.9,48.4,57.4,53.5,48.1,99,70,46,30.17,30.09,8,2,8,0.00
2013-8-16,79.7,67.9,51.4,62.1,54.7,50.1,99,67,37,30.18,30.12,8,2,8,0.00
2013-8-17,80.6,71.5,55.2,62.7,58.3,54.4,99,66,44,30.23,30.16,11,3,11,0.00
2013-8-18,84.2,74.9,57.0,66.3,60.7,56.0,99,64,40,30.20,30.09,8,2,8,0.00
2013-8-19,86.4,72.5,58.8,67.5,62.6,58.6,99,74,45,30.12,30.04,11,2,11,0.00
2013-8-20,87.3,74.7,61.9,70.0,65.1,61.3,99,75,47,30.14,30.07,12,2,12,0.00
2013-8-21,88.9,79.6,66.0,72.0,68.4,65.3,99,71,47,30.12,29.99,13,4,13,0.00
2013-8-22,80.2,72.6,66.6,73.8,70.0,66.3,99,92,78,30.10,29.99,17,3,17,0.27
2013-8-23,82.6,73.4,63.1,68.3,58.4,48.1,99,64,33,30.17,30.07,11,3,11,0.00
2013-8-24,84.6,77.3,55.8,60.9,58.0,54.0,99,54,40,30.28,30.17,8,2,8,0.00
2013-8-25,89.1,81.0,58.5,67.9,64.2,58.2,99,59,43,30.28,30.15,13,4,13,0.00
2013-8-26,89.6,80.2,64.6,74.2,69.6,63.1,96,71,55,30.19,30.02,14,4,14,0.00
2013-8-27,92.7,83.5,73.9,77.2,73.9,70.7,95,74,53,30.02,29.87,17,4,17,0.00
2013-8-28,86.7,80.7,72.1,77.5,73.9,69.0,97,80,70,30.02,29.84,11,4,11,0.00
2013-8-29,89.6,78.5,66.2,73.6,68.7,65.5,99,75,46,30.07,29.99,8,2,8,0.00
2013-8-30,92.1,82.0,66.7,76.7,71.8,66.5,99,73,49,30.00,29.76,14,4,14,0.00
2013-8-31,82.0,76.2,70.3,75.2,71.6,69.2,99,86,68,29.86,29.77,8,2,8,0.00
2013-9-1,88.0,79.9,68.0,73.3,71.8,67.7,99,77,58,29.82,29.73,10,3,10,0.00
2013-9-2,79.2,72.8,62.8,72.1,63.3,57.0,99,74,51,29.94,29.76,15,5,15,0.00
2013-9-3,77.0,65.5,55.0,59.1,57.2,54.2,99,76,49,30.05,29.95,8,2,8,0.00
2013-9-4,82.4,70.2,52.9,62.0,56.4,52.3,99,65,40,30.11,30.03,14,3,14,0.00
2013-9-5,79.9,69.9,59.4,61.7,49.1,36.8,99,53,22,30.24,30.10,12,4,12,0.00
2013-9-6,83.7,69.3,51.1,61.1,54.8,49.4,97,64,33,30.24,30.05,9,2,9,0.00
2013-9-7,88.5,78.0,62.8,69.9,66.0,57.0,88,69,44,30.05,29.91,10,3,11,0.00
2013-9-8,78.4,73.7,65.5,69.5,66.7,64.5,99,79,67,30.04,29.94,11,3,11,0.00
2013-9-9,91.4,78.2,64.0,75.4,67.6,55.0,90,71,55,30.02,29.86,11,4,11,0.00
2013-9-10,97.0,87.5,75.0,75.3,68.7,64.1,93,57,35,30.03,29.90,16,5,16,0.00
2013-9-11,95.5,82.1,72.7,73.6,71.3,66.3,98,73,39,30.06,29.93,18,4,18,0.00
2013-9-12,83.7,71.9,61.9,71.2,62.3,50.9,99,76,35,30.01,29.87,11,4,11,0.02
2013-9-13,66.4,58.2,50.2,52.8,45.9,40.5,89,66,39,30.12,30.02,14,4,14,0.00
2013-9-14,71.6,61.8,41.0,48.4,41.9,36.8,99,52,29,30.18,30.06,9,2,9,0.00
2013-9-15,66.0,59.4,48.0,57.9,52.9,44.6,99,80,63,30.11,30.00,11,2,11,0.00
2013-9-16,68.9,60.3,52.5,56.2,52.5,47.3,99,78,47,30.31,30.12,10,4,10,0.00
2013-9-17,73.4,60.7,44.8,52.6,48.3,44.0,99,67,41,30.34,30.16,8,3,8,0.00
2013-9-18,82.2,70.0,54.0,61.8,56.4,48.9,94,65,34,30.17,29.97,13,3,13,0.00
2013-9-19,74.1,68.3,65.7,70.3,67.5,62.8,99,97,79,30.05,29.86,11,2,11,0.96
2013-9-20,73.8,71.1,65.1,72.9,68.7,60.0,98,92,82,29.88,29.76,13,4,13,0.01
2013-9-21,68.2,61.7,57.9,60.3,54.6,47.5,99,79,49,29.88,29.74,14,4,15,0.00
2013-9-22,66.2,58.9,48.4,52.6,47.2,44.3,99,67,46,30.05,29.90,12,3,12,0.00
2013-9-23,69.8,57.9,42.8,51.3,47.9,42.3,99,72,48,30.12,30.05,9,3,9,0.00
2013-9-24,71.4,60.0,44.6,51.3,48.1,43.8,99,68,43,30.09,29.94,10,2,10,0.00
2013-9-25,74.5,62.6,48.0,56.5,51.8,47.4,99,71,45,29.97,29.91,8,3,8,0.00
2013-9-26,80.1,65.2,48.0,57.3,50.5,44.1,99,65,29,30.09,29.95,9,2,9,0.00
2013-9-27,80.6,67.0,46.4,58.4,53.3,46.1,99,65,40,30.18,30.09,9,2,9,0.00
2013-9-28,82.6,71.3,51.6,60.5,56.0,51.3,99,62,37,30.14,29.96,15,4,15,0.00
2013-9-29,70.3,64.1,53.2,62.5,56.0,52.1,99,76,56,30.01,29.93,8,3,9,0.14
2013-9-30,74.8,62.5,47.1,59.1,53.4,46.9,99,75,47,30.00,29.91,12,2,12,0.00
2013-10-1,76.1,67.2,55.4,66.6,63.4,54.8,99,88,68,30.00,29.93,13,4,13,0.00
2013-10-2,82.8,73.2,64.9,67.2,59.2,50.3,99,66,37,30.08,29.96,8,2,8,0.00
2013-10-3,77.4,70.3,61.7,73.1,68.0,57.9,99,93,72,30.02,29.89,14,3,14,0.66
2013-10-4,80.8,73.0,63.7,73.6,69.5,62.8,99,89,72,30.00,29.92,11,2,11,0.19
2013-10-5,77.7,70.9,64.9,73.2,69.5,64.7,99,96,80,29.99,29.82,16,2,16,0.00
2013-10-6,68.0,59.0,50.9,67.7,55.7,42.3,99,89,68,29.84,29.69,14,3,14,0.02
2013-10-7,61.5,52.4,43.0,52.4,46.9,42.4,99,83,58,30.09,29.74,13,5,13,0.00
2013-10-8,74.5,60.3,43.9,54.2,49.8,43.4,99,71,43,30.22,30.10,11,2,11,0.00
2013-10-9,73.0,55.0,44.2,52.1,47.0,43.5,99,78,37,30.26,30.15,7,1,7,0.00
2013-10-10,76.1,61.8,44.2,57.3,50.2,43.7,99,70,39,30.18,30.08,8,1,8,0.00
2013-10-11,77.4,61.8,45.1,55.9,49.4,44.3,99,69,33,30.11,30.00,9,2,9,0.00
2013-10-12,79.7,69.6,50.5,65.2,57.9,50.3,99,70,41,30.11,29.99,14,3,14,0.01
2013-10-13,66.7,59.2,44.1,62.5,47.3,39.2,99,68,41,30.35,30.10,13,3,13,0.28
2013-10-14,65.7,53.9,39.7,49.2,45.3,39.5,99,75,49,30.37,30.19,12,2,12,0.00
2013-10-15,63.5,57.5,46.0,62.7,55.8,45.2,98,94,86,30.20,29.81,11,3,11,0.01
2013-10-16,61.9,51.2,46.4,61.3,47.6,44.8,98,87,83,29.92,29.82,14,5,14,0.00
2013-10-17,52.2,50.0,45.5,50.6,48.0,43.3,99,93,84,29.91,29.79,14,4,14,0.20
2013-10-18,61.5,49.9,37.4,48.8,43.7,37.1,99,81,53,29.94,29.85,14,4,14,0.00
2013-10-19,56.5,47.9,42.1,46.4,38.4,26.7,99,72,34,29.91,29.77,16,4,16,0.18
2013-10-20,62.8,56.4,41.0,45.8,42.7,38.9,94,61,46,29.90,29.79,17,5,17,0.00
2013-10-21,56.5,49.9,42.4,49.7,42.8,-2.3,96,77,10,29.91,29.81,15,5,15,0.00
2013-10-22,49.5,39.9,31.6,36.6,31.8,25.7,97,75,45,29.95,29.88,13,4,13,0.00
2013-10-23,46.8,38.5,33.6,42.3,35.4,29.8,99,90,61,29.97,29.83,16,3,16,0.02
2013-10-24,42.4,37.4,33.6,38.8,35.7,33.3,99,94,72,30.21,29.95,14,4,14,0.20
2013-10-25,49.8,41.3,31.1,38.7,31.3,25.0,99,70,40,30.34,30.09,17,4,17,0.05
2013-10-26,53.2,47.0,41.5,41.8,36.1,27.7,84,66,55,30.09,29.82,20,6,20,0.00
2013-10-27,56.1,47.9,30.6,40.1,32.6,27.6,99,58,36,30.05,29.97,17,3,17,0.00
2013-10-28,58.5,45.7,30.7,41.6,36.6,29.9,99,73,46,30.32,30.03,11,2,11,0.00
2013-10-29,56.3,45.8,34.3,44.1,39.2,32.8,98,79,58,30.36,30.17,9,2,9,0.00
2013-10-30,61.0,52.6,38.5,58.4,49.7,38.2,99,91,78,30.17,29.88,8,2,8,0.41
2013-10-31,63.7,60.7,54.1,62.8,60.3,53.3,99,98,97,30.29,29.22,23,7,23,1.32
2013-11-1,52.7,47.6,45.5,52.2,43.5,40.6,98,86,75,29.67,29.27,18,5,18,0.04
2013-11-2,47.1,44.7,42.1,43.8,40.6,38.2,96,86,74,30.06,29.88,16,4,16,0.05
2013-11-3,50.4,45.9,39.9,41.6,37.8,36.1,99,74,63,30.32,30.06,8,3,8,0.01
2013-11-4,52.3,47.7,38.5,42.7,37.8,34.4,89,69,56,30.33,30.18,13,4,13,0.00
2013-11-5,56.5,53.1,50.2,49.8,46.3,42.9,84,78,71,30.29,30.12,9,3,9,0.00
2013-11-6,57.6,51.4,42.1,54.6,50.2,40.7,99,96,63,30.04,29.80,22,8,22,0.40
2013-11-7,47.5,41.5,34.9,40.0,31.1,26.6,93,67,45,30.18,30.05,14,5,16,0.00
2013-11-8,48.2,41.6,31.6,34.2,31.0,28.4,94,67,50,30.28,30.07,10,3,10,0.00
2013-11-9,60.1,53.6,43.2,41.9,38.3,30.3,65,56,47,30.08,29.85,22,9,22,0.00
2013-11-10,48.2,42.4,34.5,35.0,30.8,27.4,82,64,52,30.27,29.98,16,5,16,0.00
2013-11-11,47.5,39.4,30.4,40.0,32.4,21.3,95,77,58,30.29,30.05,14,4,14,0.13
2013-11-12,34.2,29.4,23.4,26.5,20.1,14.7,84,68,55,30.56,30.36,14,3,14,0.00
2013-11-13,39.7,30.5,20.5,19.2,16.0,8.6,79,57,33,30.52,30.19,17,6,17,0.01
2013-11-14,52.0,42.1,29.8,25.4,21.1,16.7,65,44,29,30.18,29.97,21,7,21,0.00
2013-11-15,51.4,45.9,37.2,33.4,29.3,23.0,64,52,43,30.02,29.95,12,4,12,0.00
2013-11-16,58.3,53.7,40.1,57.3,49.7,31.8,97,86,65,29.99,29.69,19,8,19,0.08
2013-11-17,64.0,58.2,47.1,61.8,54.4,38.7,99,88,69,29.69,29.21,34,13,34,0.85
2013-11-18,46.8,39.6,36.1,38.6,30.6,-26.1,85,70,62,30.15,29.65,105,9,105,0.00
2013-11-19,45.5,38.2,29.7,27.3,25.2,21.7,78,60,45,30.32,30.15,9,3,9,0.00
2013-11-20,44.8,37.8,27.3,34.6,27.2,21.1,80,66,51,30.32,30.12,12,4,12,0.00
2013-11-21,49.3,46.2,40.5,45.4,42.6,35.5,97,88,72,30.19,30.12,12,3,12,0.45
2013-11-22,46.2,39.2,29.1,45.4,35.4,25.8,99,86,69,30.38,30.12,21,5,21,0.02
2013-11-23,31.5,24.4,17.8,26.2,15.5,11.2,88,69,46,30.54,30.30,24,7,24,0.01
2013-11-24,27.9,21.8,15.8,18.5,9.5,-0.2,81,60,35,30.59,30.39,14,4,14,0.00
2013-11-25,31.6,27.4,18.5,25.8,16.0,1.8,88,63,46,30.37,30.07,21,8,21,0.00
2013-11-26,33.4,30.7,27.7,27.4,24.9,16.5,87,79,62,30.07,29.93,14,4,14,0.00
2013-11-27,28.4,25.4,21.4,22.2,18.8,14.2,83,76,63,30.19,29.97,13,4,13,0.00
2013-11-28,30.0,27.0,22.6,20.1,15.5,11.1,79,62,50,30.37,30.17,12,3,12,0.00
2013-11-29,37.9,32.3,27.3,20.4,18.4,15.4,69,57,43,30.58,30.38,9,2,9,0.02
2013-11-30,49.3,37.8,29.7,31.4,25.7,20.1,73,62,48,30.44,30.06,15,4,15,0.01
2013-12-1,45.0,38.4,27.7,36.3,29.1,22.6,85,70,54,30.06,29.97,9,2,9,0.00
2013-12-2,42.4,35.3,26.4,31.3,28.0,22.4,92,75,57,29.96,29.81,11,3,11,0.00
2013-12-3,47.8,42.3,33.8,46.0,40.4,30.3,98,93,85,29.81,29.72,9,4,9,0.13
2013-12-4,60.3,52.1,43.3,57.5,50.8,42.5,99,95,88,29.79,29.58,17,5,17,0.00
2013-12-5,59.7,33.7,28.6,56.3,24.7,-20.1,89,69,62,30.15,29.59,17,8,17,0.00
2013-12-6,28.6,26.4,24.1,19.0,15.1,10.3,67,62,55,30.36,30.14,11,5,11,0.00
2013-12-7,25.7,20.8,14.7,15.0,8.2,5.7,71,58,45,30.57,30.38,11,4,11,0.00
2013-12-8,26.4,23.2,14.4,22.4,14.7,6.7,87,70,54,30.50,29.93,14,5,14,0.00
2013-12-9,27.7,22.8,15.8,23.3,13.7,1.7,88,68,53,30.14,29.87,20,9,20,0.00
2013-12-10,24.4,15.8,2.7,8.4,1.4,-8.6,59,52,43,30.20,29.97,26,9,26,0.00
2013-12-11,26.1,18.1,13.1,17.5,9.4,0.7,85,69,51,30.42,30.22,17,5,17,0.00
2013-12-12,20.3,11.2,-1.5,6.0,-3.7,-14.3,67,51,33,30.44,30.19,19,6,19,0.00
2013-12-13,33.6,24.9,9.9,21.0,12.9,0.9,79,60,47,30.19,30.10,7,2,7,0.04
2013-12-14,26.6,22.8,20.7,22.4,18.9,16.1,88,85,80,30.12,29.82,14,5,14,0.00
2013-12-15,25.7,18.6,11.3,21.1,11.1,2.5,84,72,62,30.04,29.84,16,6,16,0.00
2013-12-16,21.7,16.3,5.9,11.8,6.8,-1.7,76,66,54,30.11,29.97,8,2,8,0.00
2013-12-17,28.6,23.4,17.8,23.8,18.0,11.4,86,79,70,30.00,29.89,14,6,14,0.00
2013-12-18,29.7,23.6,16.5,17.1,11.4,8.5,72,59,52,30.15,29.86,14,5,14,0.00
2013-12-19,43.7,39.5,30.0,37.0,33.3,18.2,96,78,61,29.93,29.82,9,3,9,0.09
2013-12-20,42.3,39.2,35.1,41.8,38.8,34.4,99,99,96,29.81,29.67,6,1,6,0.35
2013-12-21,36.1,34.2,33.1,35.4,33.6,32.1,99,98,96,29.80,29.54,19,4,19,0.48
2013-12-22,36.3,34.1,31.3,34.6,31.7,28.3,99,91,86,30.00,29.47,19,6,19,0.13
2013-12-23,31.1,22.6,9.7,28.3,13.0,-2.0,89,67,51,30.34,29.99,16,8,16,0.00
2013-12-24,21.4,14.5,4.8,8.3,4.2,-6.3,72,63,55,30.47,30.34,14,4,14,0.00
2013-12-25,26.2,24.2,16.0,23.6,17.6,8.0,90,76,63,30.39,30.04,19,6,19,0.00
2013-12-26,32.9,26.9,21.0,25.0,18.1,10.9,91,69,55,30.24,30.02,17,5,17,0.00
2013-12-27,42.8,37.8,31.3,32.3,29.8,24.7,82,73,64,30.26,30.08,17,6,17,0.04
2013-12-28,50.5,42.8,34.5,35.5,32.7,28.5,79,68,55,30.08,29.85,16,7,16,0.00
2013-12-29,42.1,33.0,23.2,32.1,26.4,17.0,86,77,65,30.02,29.73,21,7,21,0.00
2013-12-30,23.4,19.0,14.5,16.3,7.6,5.2,74,61,50,30.22,30.03,11,5,11,0.00
2013-12-31,17.1,14.7,12.7,9.1,5.3,-1.0,76,66,47,30.28,30.08,14,5,14,0.00
2014-1-1,18.0,15.5,12.9,9.9,8.1,6.2,77,72,65,30.25,30.11,16,6,17,0.00
2014-1-2,15.4,13.0,2.7,7.8,1.7,-9.5,75,61,45,30.28,30.01,17,7,17,0.00